If you wish to contribute or participate in the discussions about articles you are invited to join SKYbrary as a registered user

 Actions

Cat Bi International Airport

From SKYbrary Wiki

VVCI
Airport
ICAO: VVCI – IATA: HPH
Summary
Name Cat Bi International Airport
Region Asia and Pacific
Territory Vietnam VN.gif
Location Hai Phong, Hai Phong
Serving Hai Phong
Elevation 3.962 m
13 ft3.962 m
Coordinates 20° 49' 9.01" N, 106° 43' 28.99" E
Runways
Designator Length Width Surface ROPS
7/25 2402 m7,880.577 ft
50 m164.042 ft
ASP /


METAR
Observation VVCI 161000Z 09003KT CAVOK 29/25 Q1005 NOSIG
Station Cat Bi International Airport
Date/Time 16 September 2019 10:00:00
Wind direction 90°
Wind speed 03 kts
Lowest cloud amount clouds and visibility OK
Temperature 29°C
Dew point 25°C
Humidity 79%
QNH 1005 hPa
Weather condition n/a

Cat Bi International Airport is an international airport located in Hai Phong, Vietnam.

Climatology

Humid subtropical climate (Köppen climate classification Cwa)

Maps

Terrain

Loading map...

Airport Layout

Loading map...


Accidents & Serious Incidents at or in vicinity of VVCI

None on SKYbrary